Terminal Aerodrome Forecast
Issued by NWS

Home | Current Version | Previous Version | Graphics & Text | Print | Product List | Glossary On
Versions: 1 2 3 4 5 6 7 8 9 10 11 12 13 14 15 16 17 18 19 20 21 22 23
000
FTUS43 KGRB 161500 AAB
TAFATW
TAF AMD
KATW 161542Z 1616/1712 36010G18KT 5SM -RA BR SCT004 OVC008
     FM161700 33013G20KT 3SM -RAPLSN BR BKN006 OVC012
     FM161800 33015G22KT 2SM -SN BR SCT007 OVC013
      TEMPO 1700/1702 4SM -SN
     FM170200 30013G20KT P6SM -SN BKN020 OVC035=

USA.gov is the U.S. government's official web portal to all federal, state and local government web resources and services.